createdAt,value
2017-06-24T00:00:09.533Z,1009.79
2017-06-24T00:03:36.427Z,1009.73
2017-06-24T00:04:17.311Z,1009.73
2017-06-24T00:04:58.201Z,1009.75
2017-06-24T00:05:39.086Z,1009.78
2017-06-24T00:06:19.975Z,1009.77
2017-06-24T00:07:00.885Z,1009.81
2017-06-24T00:07:41.794Z,1009.8
2017-06-24T00:08:22.692Z,1009.81
2017-06-24T00:09:03.585Z,1009.81
2017-06-24T00:09:44.473Z,1009.8
2017-06-24T00:10:25.367Z,1009.79
2017-06-24T00:11:06.261Z,1009.76
2017-06-24T00:11:47.142Z,1009.8
2017-06-24T00:12:28.091Z,1009.81
2017-06-24T00:14:37.056Z,1009.83
2017-06-24T00:15:17.957Z,1009.84
2017-06-24T00:15:58.840Z,1009.82
2017-06-24T00:16:39.732Z,1009.84
2017-06-24T00:17:20.645Z,1009.84
2017-06-24T00:18:01.516Z,1009.86
2017-06-24T00:18:42.426Z,1009.9
2017-06-24T00:19:23.311Z,1009.86
2017-06-24T00:20:04.194Z,1009.88
2017-06-24T00:20:45.084Z,1009.96
2017-06-24T00:21:26.002Z,1010.01
2017-06-24T00:22:06.868Z,1010.02
2017-06-24T00:22:47.732Z,1010.02
2017-06-24T00:23:28.635Z,1010.03
2017-06-24T00:24:09.533Z,1010
2017-06-24T00:26:24.088Z,1010.08
2017-06-24T00:27:05.010Z,1010.07
2017-06-24T00:27:45.899Z,1010.06
2017-06-24T00:28:26.789Z,1010.01
2017-06-24T00:29:07.679Z,1009.97
2017-06-24T00:31:22.409Z,1010.01
2017-06-24T00:32:03.322Z,1009.97
2017-06-24T00:32:44.196Z,1009.9
2017-06-24T00:33:25.087Z,1009.93
2017-06-24T00:34:06.850Z,1009.93
2017-06-24T00:34:47.737Z,1009.92
2017-06-24T00:35:28.627Z,1009.9
2017-06-24T00:36:09.519Z,1009.91
2017-06-24T00:36:50.427Z,1009.9
2017-06-24T00:37:31.311Z,1009.91
2017-06-24T00:38:12.204Z,1009.93
2017-06-24T00:38:53.101Z,1009.91
2017-06-24T00:41:29.601Z,1009.88
2017-06-24T00:42:10.490Z,1009.84
2017-06-24T00:42:53.185Z,1009.86
2017-06-24T00:43:34.095Z,1009.89
2017-06-24T00:44:14.959Z,1009.85
2017-06-24T00:48:08.008Z,1009.78
2017-06-24T00:48:48.903Z,1009.73
2017-06-24T00:49:29.791Z,1009.76
2017-06-24T00:50:10.662Z,1009.81
2017-06-24T00:50:51.548Z,1009.84
2017-06-24T00:51:32.418Z,1009.87
2017-06-24T00:52:13.303Z,1009.9
2017-06-24T00:54:30.302Z,1009.94
2017-06-24T00:55:11.171Z,1009.92
2017-06-24T00:55:52.047Z,1009.89
2017-06-24T00:56:32.947Z,1009.94
2017-06-24T00:57:13.825Z,1009.91
2017-06-24T00:57:54.700Z,1009.89
2017-06-24T01:01:27.991Z,1009.84
2017-06-24T01:02:08.883Z,1009.84
2017-06-24T01:02:49.773Z,1009.82
2017-06-24T01:03:30.654Z,1009.83
2017-06-24T01:04:11.543Z,1009.79
2017-06-24T01:06:28.259Z,1009.77
2017-06-24T01:07:09.176Z,1009.77
2017-06-24T01:09:22.956Z,1009.71
2017-06-24T01:10:03.848Z,1009.72
2017-06-24T01:10:44.773Z,1009.76
2017-06-24T01:11:25.649Z,1009.78
2017-06-24T01:12:06.545Z,1009.8
2017-06-24T01:14:21.349Z,1009.8
2017-06-24T01:15:02.204Z,1009.8
2017-06-24T01:15:43.104Z,1009.75
2017-06-24T01:16:23.979Z,1009.78
2017-06-24T01:17:04.865Z,1009.76
2017-06-24T01:17:45.746Z,1009.72
2017-06-24T01:18:26.645Z,1009.71
2017-06-24T01:19:07.526Z,1009.72
2017-06-24T01:22:57.098Z,1009.69
2017-06-24T01:23:37.986Z,1009.72
2017-06-24T01:24:18.888Z,1009.71
2017-06-24T01:24:59.777Z,1009.72
2017-06-24T01:25:40.666Z,1009.7
2017-06-24T01:26:21.592Z,1009.71
2017-06-24T01:27:02.461Z,1009.7
2017-06-24T01:27:43.351Z,1009.74
2017-06-24T01:28:24.268Z,1009.69
2017-06-24T01:29:05.920Z,1009.69
2017-06-24T01:29:46.812Z,1009.7
2017-06-24T01:30:27.694Z,1009.7
2017-06-24T01:31:08.585Z,1009.69
2017-06-24T01:31:49.488Z,1009.71
2017-06-24T01:32:30.373Z,1009.67
2017-06-24T01:33:12.949Z,1009.65
2017-06-24T01:36:29.040Z,1009.7
2017-06-24T01:37:09.926Z,1009.68
2017-06-24T01:43:02.874Z,1009.6
2017-06-24T01:43:43.779Z,1009.57
2017-06-24T01:45:20.712Z,1009.55
2017-06-24T01:46:01.589Z,1009.53
2017-06-24T01:46:42.502Z,1009.52
2017-06-24T01:47:23.381Z,1009.53
2017-06-24T01:48:04.274Z,1009.49
2017-06-24T01:48:45.205Z,1009.51
2017-06-24T01:49:26.061Z,1009.5
2017-06-24T01:50:06.954Z,1009.49
2017-06-24T01:52:20.716Z,1009.5
2017-06-24T01:53:01.609Z,1009.5
2017-06-24T01:53:42.585Z,1009.51
2017-06-24T01:54:23.480Z,1009.52
2017-06-24T01:55:04.380Z,1009.47
2017-06-24T01:55:45.252Z,1009.46
2017-06-24T01:56:26.132Z,1009.49
2017-06-24T01:57:07.027Z,1009.49
2017-06-24T02:00:23.990Z,1009.41
2017-06-24T02:03:06.800Z,1009.39
2017-06-24T02:06:24.159Z,1009.45
2017-06-24T02:07:05.062Z,1009.46
2017-06-24T02:07:46.184Z,1009.46
2017-06-24T02:10:46.391Z,1009.46
2017-06-24T02:12:50.633Z,1009.41
2017-06-24T02:15:21.858Z,1009.41
2017-06-24T02:16:02.727Z,1009.4
2017-06-24T02:16:43.657Z,1009.41
2017-06-24T02:17:24.546Z,1009.43
2017-06-24T02:18:05.469Z,1009.43
2017-06-24T02:18:46.354Z,1009.42
2017-06-24T02:19:27.249Z,1009.47
2017-06-24T02:20:08.189Z,1009.44
2017-06-24T02:22:02.456Z,1009.47
2017-06-24T02:24:43.259Z,1009.44
2017-06-24T02:25:24.188Z,1009.41
2017-06-24T02:28:36.406Z,1009.48
2017-06-24T02:29:17.311Z,1009.46
2017-06-24T02:29:58.964Z,1009.42
2017-06-24T02:30:39.853Z,1009.39
2017-06-24T02:31:20.744Z,1009.42
2017-06-24T02:32:01.639Z,1009.47
2017-06-24T02:32:44.370Z,1009.43
2017-06-24T02:33:25.258Z,1009.42
2017-06-24T02:34:06.156Z,1009.45
2017-06-24T02:34:47.038Z,1009.45
2017-06-24T02:35:27.934Z,1009.48
2017-06-24T02:37:44.589Z,1009.35
2017-06-24T02:38:25.361Z,1009.38
2017-06-24T02:39:06.272Z,1009.36
2017-06-24T02:41:22.548Z,1009.38
2017-06-24T02:42:03.455Z,1009.35
2017-06-24T02:42:44.333Z,1009.34
2017-06-24T02:43:25.433Z,1009.33
2017-06-24T02:44:08.072Z,1009.28
2017-06-24T02:46:24.188Z,1009.33
2017-06-24T02:47:05.122Z,1009.29
2017-06-24T02:47:46.002Z,1009.35
2017-06-24T02:48:26.881Z,1009.32
2017-06-24T02:49:09.810Z,1009.33
2017-06-24T02:49:50.667Z,1009.34
2017-06-24T02:50:31.954Z,1009.27
2017-06-24T02:57:21.189Z,1009.35
2017-06-24T03:00:18.422Z,1009.31
2017-06-24T03:00:59.311Z,1009.35
2017-06-24T03:01:40.187Z,1009.39
2017-06-24T03:02:21.053Z,1009.39
2017-06-24T03:03:01.940Z,1009.33
2017-06-24T03:03:42.830Z,1009.4
2017-06-24T03:04:23.810Z,1009.46
2017-06-24T03:05:04.673Z,1009.39
2017-06-24T03:05:45.562Z,1009.42
2017-06-24T03:06:26.448Z,1009.43
2017-06-24T03:07:08.268Z,1009.43
2017-06-24T03:07:49.145Z,1009.46
2017-06-24T03:08:30.042Z,1009.42
2017-06-24T03:09:10.927Z,1009.41
2017-06-24T03:09:51.832Z,1009.4
2017-06-24T03:12:20.973Z,1009.4
2017-06-24T03:13:01.874Z,1009.39
2017-06-24T03:13:42.792Z,1009.49
2017-06-24T03:14:23.683Z,1009.4
2017-06-24T03:15:04.590Z,1009.39
2017-06-24T03:15:45.480Z,1009.39
2017-06-24T03:16:26.361Z,1009.37
2017-06-24T03:17:07.261Z,1009.39
2017-06-24T03:19:21.022Z,1009.4
2017-06-24T03:21:18.578Z,1009.38
2017-06-24T03:21:59.458Z,1009.44
2017-06-24T03:22:40.324Z,1009.46
2017-06-24T03:23:21.223Z,1009.43
2017-06-24T03:24:02.114Z,1009.48
2017-06-24T03:24:42.986Z,1009.46
2017-06-24T03:25:23.889Z,1009.46
2017-06-24T03:26:06.291Z,1009.46
2017-06-24T03:26:47.175Z,1009.46
2017-06-24T03:27:28.049Z,1009.46
2017-06-24T03:28:08.920Z,1009.47
2017-06-24T03:33:34.756Z,1009.38
2017-06-24T03:34:15.605Z,1009.43
2017-06-24T03:34:56.667Z,1009.45
2017-06-24T03:35:37.529Z,1009.36
2017-06-24T03:36:18.435Z,1009.44
2017-06-24T03:36:59.445Z,1009.42
2017-06-24T03:37:40.222Z,1009.39
2017-06-24T03:38:21.132Z,1009.52
2017-06-24T03:39:02.040Z,1009.46
2017-06-24T03:39:42.942Z,1009.5
2017-06-24T03:40:23.809Z,1009.41
2017-06-24T03:41:04.695Z,1009.43
2017-06-24T03:43:21.205Z,1009.43
2017-06-24T03:44:02.091Z,1009.42
2017-06-24T03:47:15.922Z,1009.37
2017-06-24T03:47:56.777Z,1009.35
2017-06-24T03:49:55.797Z,1009.4
2017-06-24T03:50:36.797Z,1009.4
2017-06-24T03:51:17.690Z,1009.36
2017-06-24T03:51:58.589Z,1009.41
2017-06-24T03:52:39.504Z,1009.42
2017-06-24T03:53:20.481Z,1009.46
2017-06-24T03:54:01.450Z,1009.44
2017-06-24T03:54:42.278Z,1009.43
2017-06-24T03:55:23.183Z,1009.42
2017-06-24T03:56:04.119Z,1009.45
2017-06-24T03:59:15.259Z,1009.46
2017-06-24T03:59:56.143Z,1009.49
2017-06-24T04:00:37.045Z,1009.44
2017-06-24T04:01:17.948Z,1009.41
2017-06-24T04:01:58.858Z,1009.33
2017-06-24T04:02:39.743Z,1009.42
2017-06-24T04:03:20.626Z,1009.36
2017-06-24T04:04:01.520Z,1009.43
2017-06-24T04:04:42.408Z,1009.47
2017-06-24T04:05:23.280Z,1009.46
2017-06-24T04:06:04.196Z,1009.52
2017-06-24T04:06:45.079Z,1009.54
2017-06-24T04:07:25.961Z,1009.49
2017-06-24T04:08:06.893Z,1009.54
2017-06-24T04:10:20.649Z,1009.56
2017-06-24T04:11:01.541Z,1009.56
2017-06-24T04:11:42.426Z,1009.62
2017-06-24T04:12:23.302Z,1009.58
2017-06-24T04:13:04.198Z,1009.59
2017-06-24T04:15:24.016Z,1009.62
2017-06-24T04:16:04.900Z,1009.64
2017-06-24T04:16:45.787Z,1009.7
2017-06-24T04:17:26.678Z,1009.62
2017-06-24T04:18:07.561Z,1009.64
2017-06-24T04:18:52.755Z,1009.6
2017-06-24T04:19:33.687Z,1009.66
2017-06-24T04:23:01.734Z,1009.58
2017-06-24T04:23:43.540Z,1009.59
2017-06-24T04:24:24.417Z,1009.62
2017-06-24T04:25:05.300Z,1009.56
2017-06-24T04:25:46.242Z,1009.58
2017-06-24T04:26:27.125Z,1009.63
2017-06-24T04:27:08.016Z,1009.61
2017-06-24T04:27:48.901Z,1009.6
2017-06-24T04:28:29.824Z,1009.61
2017-06-24T04:29:10.744Z,1009.61
2017-06-24T04:29:51.622Z,1009.67
2017-06-24T04:30:32.521Z,1009.66
2017-06-24T04:31:16.179Z,1009.69
2017-06-24T04:31:58.584Z,1009.66
2017-06-24T04:32:39.463Z,1009.68
2017-06-24T04:33:20.344Z,1009.66
2017-06-24T04:34:01.248Z,1009.64
2017-06-24T04:34:42.149Z,1009.62
2017-06-24T04:35:23.024Z,1009.62
2017-06-24T04:36:03.910Z,1009.66
2017-06-24T04:36:44.795Z,1009.63
2017-06-24T04:37:25.687Z,1009.6
2017-06-24T04:38:06.565Z,1009.57
2017-06-24T04:38:47.458Z,1009.62
2017-06-24T04:39:28.412Z,1009.62
2017-06-24T04:40:09.423Z,1009.65
2017-06-24T04:42:23.325Z,1009.65
2017-06-24T04:43:04.267Z,1009.61
2017-06-24T04:45:18.880Z,1009.64
2017-06-24T04:45:59.830Z,1009.67
2017-06-24T04:46:40.690Z,1009.67
2017-06-24T04:47:21.559Z,1009.72
2017-06-24T04:48:02.458Z,1009.64
2017-06-24T04:48:43.347Z,1009.63
2017-06-24T04:49:24.245Z,1009.61
2017-06-24T04:50:05.135Z,1009.6
2017-06-24T04:50:46.025Z,1009.55
2017-06-24T04:51:26.916Z,1009.6
2017-06-24T04:52:07.815Z,1009.6
2017-06-24T04:52:48.691Z,1009.6
2017-06-24T04:53:29.571Z,1009.59
2017-06-24T04:54:10.456Z,1009.54
2017-06-24T04:54:51.328Z,1009.58
2017-06-24T04:55:32.258Z,1009.56
2017-06-24T04:56:13.156Z,1009.57
2017-06-24T04:56:54.027Z,1009.53
2017-06-24T04:57:34.914Z,1009.55
2017-06-24T04:58:15.815Z,1009.49
2017-06-24T04:58:56.695Z,1009.59
2017-06-24T04:59:37.578Z,1009.53
2017-06-24T05:00:18.480Z,1009.5
2017-06-24T05:00:59.375Z,1009.55
2017-06-24T05:01:40.254Z,1009.47
2017-06-24T05:02:21.127Z,1009.44
2017-06-24T05:03:02.035Z,1009.47
2017-06-24T05:03:42.918Z,1009.51
2017-06-24T05:04:23.816Z,1009.45
2017-06-24T05:05:04.702Z,1009.48
2017-06-24T05:05:45.580Z,1009.47
2017-06-24T05:06:26.458Z,1009.47
2017-06-24T05:07:07.350Z,1009.47
2017-06-24T05:07:48.275Z,1009.49
2017-06-24T05:08:29.175Z,1009.46
2017-06-24T05:09:10.077Z,1009.42
2017-06-24T05:09:50.961Z,1009.48
2017-06-24T05:10:31.867Z,1009.44
2017-06-24T05:11:12.753Z,1009.43
2017-06-24T05:11:53.639Z,1009.42
2017-06-24T05:12:34.538Z,1009.5
2017-06-24T05:13:15.426Z,1009.44
2017-06-24T05:13:56.303Z,1009.39
2017-06-24T05:14:37.179Z,1009.41
2017-06-24T05:15:18.115Z,1009.45
2017-06-24T05:15:58.985Z,1009.46
2017-06-24T05:16:39.881Z,1009.46
2017-06-24T05:17:20.795Z,1009.46
2017-06-24T05:18:01.652Z,1009.47
2017-06-24T05:18:42.533Z,1009.55
2017-06-24T05:19:23.461Z,1009.48
2017-06-24T05:20:04.332Z,1009.54
2017-06-24T05:20:45.220Z,1009.44
2017-06-24T05:21:26.113Z,1009.49
2017-06-24T05:22:06.999Z,1009.5
2017-06-24T05:22:47.886Z,1009.52
2017-06-24T05:23:28.779Z,1009.51
2017-06-24T05:24:09.671Z,1009.49
2017-06-24T05:24:50.570Z,1009.46
2017-06-24T05:25:31.458Z,1009.47
2017-06-24T05:26:12.349Z,1009.49
2017-06-24T05:26:53.235Z,1009.55
2017-06-24T05:27:34.133Z,1009.54
2017-06-24T05:28:15.039Z,1009.56
2017-06-24T05:28:55.927Z,1009.53
2017-06-24T05:29:36.825Z,1009.49
2017-06-24T05:30:17.708Z,1009.48
2017-06-24T05:30:58.598Z,1009.48
2017-06-24T05:31:39.493Z,1009.48
2017-06-24T05:32:20.378Z,1009.49
2017-06-24T05:33:01.287Z,1009.45
2017-06-24T05:33:42.178Z,1009.46
2017-06-24T05:34:23.063Z,1009.46
2017-06-24T05:35:03.953Z,1009.45
2017-06-24T05:35:44.852Z,1009.47
2017-06-24T05:36:25.747Z,1009.42
2017-06-24T05:37:06.656Z,1009.47
2017-06-24T05:37:47.541Z,1009.47
2017-06-24T05:38:28.433Z,1009.49
2017-06-24T05:39:09.318Z,1009.41
2017-06-24T05:39:50.214Z,1009.45
2017-06-24T05:40:31.109Z,1009.4
2017-06-24T05:41:11.995Z,1009.43
2017-06-24T05:41:52.896Z,1009.41
2017-06-24T05:42:33.776Z,1009.41
2017-06-24T05:43:14.662Z,1009.42
2017-06-24T05:43:55.554Z,1009.42
2017-06-24T05:44:36.427Z,1009.44
2017-06-24T05:45:17.322Z,1009.39
2017-06-24T05:45:58.210Z,1009.42
2017-06-24T05:46:39.100Z,1009.37
2017-06-24T05:47:19.993Z,1009.37
2017-06-24T05:48:00.897Z,1009.37
2017-06-24T05:48:41.770Z,1009.35
2017-06-24T05:49:22.633Z,1009.33
2017-06-24T05:50:03.528Z,1009.34
2017-06-24T05:50:44.415Z,1009.37
2017-06-24T05:51:25.297Z,1009.35
2017-06-24T05:52:06.227Z,1009.36
2017-06-24T05:52:47.122Z,1009.36
2017-06-24T05:53:28.049Z,1009.33
2017-06-24T05:54:08.936Z,1009.35
2017-06-24T05:54:49.823Z,1009.38
2017-06-24T05:55:30.719Z,1009.36
2017-06-24T05:56:11.612Z,1009.39
2017-06-24T05:56:52.535Z,1009.34
2017-06-24T05:57:33.405Z,1009.36
2017-06-24T05:58:14.291Z,1009.39
2017-06-24T05:58:55.182Z,1009.43
2017-06-24T05:59:36.123Z,1009.42
2017-06-24T06:00:17.006Z,1009.43
2017-06-24T06:00:57.905Z,1009.44
2017-06-24T06:01:38.810Z,1009.49
2017-06-24T06:02:19.695Z,1009.46
2017-06-24T06:03:00.588Z,1009.46
2017-06-24T06:03:41.463Z,1009.46
2017-06-24T06:04:22.348Z,1009.54
2017-06-24T06:05:03.249Z,1009.51
2017-06-24T06:07:20.056Z,1009.49
2017-06-24T06:08:01.141Z,1009.45
2017-06-24T06:09:39.005Z,1009.43
2017-06-24T06:10:19.964Z,1009.45
2017-06-24T06:11:00.866Z,1009.43
2017-06-24T06:11:41.749Z,1009.44
2017-06-24T06:12:22.663Z,1009.4
2017-06-24T06:13:03.544Z,1009.41
2017-06-24T06:13:44.418Z,1009.44
2017-06-24T06:14:25.333Z,1009.4
2017-06-24T06:15:06.184Z,1009.42
2017-06-24T06:15:47.075Z,1009.39
2017-06-24T06:16:27.958Z,1009.44
2017-06-24T06:17:08.861Z,1009.44
2017-06-24T06:17:49.746Z,1009.41
2017-06-24T06:18:30.673Z,1009.37
2017-06-24T06:19:11.555Z,1009.4
2017-06-24T06:19:52.436Z,1009.36
2017-06-24T06:20:33.322Z,1009.37
2017-06-24T06:21:14.214Z,1009.36
2017-06-24T06:21:55.104Z,1009.36
2017-06-24T06:22:37.674Z,1009.34
2017-06-24T06:23:18.565Z,1009.3
2017-06-24T06:23:59.460Z,1009.32
2017-06-24T06:26:08.462Z,1009.35
2017-06-24T06:26:49.357Z,1009.36
2017-06-24T06:27:30.247Z,1009.33
2017-06-24T06:28:11.131Z,1009.33
2017-06-24T06:28:52.075Z,1009.36
2017-06-24T06:29:32.953Z,1009.35
2017-06-24T06:30:13.866Z,1009.36
2017-06-24T06:30:54.765Z,1009.33
2017-06-24T06:31:35.650Z,1009.31
2017-06-24T06:32:16.543Z,1009.3
2017-06-24T06:32:57.436Z,1009.29
2017-06-24T06:33:38.326Z,1009.34
2017-06-24T06:34:19.234Z,1009.38
2017-06-24T06:35:00.103Z,1009.38
2017-06-24T06:35:40.991Z,1009.37
2017-06-24T06:36:21.886Z,1009.38
2017-06-24T06:37:02.787Z,1009.38
2017-06-24T06:37:43.673Z,1009.37
2017-06-24T06:38:24.568Z,1009.41
2017-06-24T06:39:05.464Z,1009.39
2017-06-24T06:39:46.358Z,1009.38
2017-06-24T06:40:27.245Z,1009.41
2017-06-24T06:41:08.140Z,1009.35
2017-06-24T06:41:49.025Z,1009.39
2017-06-24T06:42:29.997Z,1009.35
2017-06-24T06:43:10.882Z,1009.32
2017-06-24T06:43:51.776Z,1009.37
2017-06-24T06:44:32.666Z,1009.33
2017-06-24T06:45:13.553Z,1009.35
2017-06-24T06:45:54.797Z,1009.36
2017-06-24T06:46:35.682Z,1009.32
2017-06-24T06:47:16.569Z,1009.37
2017-06-24T06:49:15.335Z,1009.32
2017-06-24T06:49:56.257Z,1009.32
2017-06-24T06:50:37.152Z,1009.34
2017-06-24T06:52:15.704Z,1009.35
2017-06-24T06:54:24.723Z,1009.36
2017-06-24T06:55:05.603Z,1009.37
2017-06-24T06:55:46.518Z,1009.4
2017-06-24T06:56:27.420Z,1009.4
2017-06-24T06:57:08.315Z,1009.39
2017-06-24T06:57:49.238Z,1009.26
2017-06-24T06:58:30.112Z,1009.36
2017-06-24T06:59:10.985Z,1009.32
2017-06-24T06:59:51.839Z,1009.36
2017-06-24T07:00:32.707Z,1009.32
2017-06-24T07:01:13.585Z,1009.31
2017-06-24T07:01:54.472Z,1009.31
2017-06-24T07:02:35.361Z,1009.32
2017-06-24T07:03:16.233Z,1009.29
2017-06-24T07:03:57.092Z,1009.29
2017-06-24T07:04:37.957Z,1009.32
2017-06-24T07:05:18.839Z,1009.28
2017-06-24T07:05:59.730Z,1009.28
2017-06-24T07:06:40.603Z,1009.32
2017-06-24T07:07:21.485Z,1009.31
2017-06-24T07:09:20.309Z,1009.35
2017-06-24T07:10:01.210Z,1009.32
2017-06-24T07:10:42.086Z,1009.33
2017-06-24T07:11:22.998Z,1009.31
2017-06-24T07:12:03.885Z,1009.28
2017-06-24T07:12:44.765Z,1009.28
2017-06-24T07:13:25.641Z,1009.33
2017-06-24T07:14:06.498Z,1009.29
2017-06-24T07:14:47.376Z,1009.34
2017-06-24T07:15:28.253Z,1009.35
2017-06-24T07:16:09.128Z,1009.37
2017-06-24T07:16:49.995Z,1009.4
2017-06-24T07:17:30.876Z,1009.36
2017-06-24T07:18:11.735Z,1009.39
2017-06-24T07:18:52.601Z,1009.42
2017-06-24T07:19:33.457Z,1009.4
2017-06-24T07:20:14.341Z,1009.4
2017-06-24T07:20:55.216Z,1009.42
2017-06-24T07:21:36.103Z,1009.39
2017-06-24T07:22:16.969Z,1009.41
2017-06-24T07:22:57.860Z,1009.37
2017-06-24T07:23:38.744Z,1009.4
2017-06-24T07:24:19.636Z,1009.38
2017-06-24T07:25:00.538Z,1009.35
2017-06-24T07:25:41.445Z,1009.4
2017-06-24T07:26:22.326Z,1009.43
2017-06-24T07:27:03.180Z,1009.4
2017-06-24T07:27:44.064Z,1009.44
2017-06-24T07:28:24.932Z,1009.41
2017-06-24T07:29:05.787Z,1009.43
2017-06-24T07:29:46.671Z,1009.41
2017-06-24T07:30:27.556Z,1009.41
2017-06-24T07:31:08.426Z,1009.41
2017-06-24T07:31:49.323Z,1009.45
2017-06-24T07:32:30.207Z,1009.43
2017-06-24T07:33:11.095Z,1009.47
2017-06-24T07:33:51.977Z,1009.41
2017-06-24T07:34:32.833Z,1009.43
2017-06-24T07:35:13.752Z,1009.39
2017-06-24T07:35:54.629Z,1009.41
2017-06-24T07:36:35.503Z,1009.39
2017-06-24T07:37:16.361Z,1009.43
2017-06-24T07:37:57.213Z,1009.37
2017-06-24T07:38:38.072Z,1009.39
2017-06-24T07:39:18.943Z,1009.36
2017-06-24T07:39:59.822Z,1009.33
2017-06-24T07:40:40.705Z,1009.36
2017-06-24T07:41:21.591Z,1009.35
2017-06-24T07:42:02.487Z,1009.32
2017-06-24T07:42:43.344Z,1009.34
2017-06-24T07:43:24.215Z,1009.36
2017-06-24T07:44:05.093Z,1009.37
2017-06-24T07:44:45.995Z,1009.32
2017-06-24T07:45:26.889Z,1009.37
2017-06-24T07:46:07.764Z,1009.35
2017-06-24T07:46:48.650Z,1009.37
2017-06-24T07:47:29.524Z,1009.4
2017-06-24T07:49:38.539Z,1009.3
2017-06-24T07:50:19.443Z,1009.3
2017-06-24T07:51:00.346Z,1009.3
2017-06-24T07:51:41.214Z,1009.26
2017-06-24T07:52:22.081Z,1009.27
2017-06-24T07:53:02.962Z,1009.26
2017-06-24T07:53:43.886Z,1009.27
2017-06-24T07:54:24.743Z,1009.29
2017-06-24T07:55:05.616Z,1009.3
2017-06-24T07:55:46.496Z,1009.28
2017-06-24T07:57:40.149Z,1009.32
2017-06-24T07:58:21.063Z,1009.31
2017-06-24T07:59:01.944Z,1009.3
2017-06-24T07:59:42.806Z,1009.3
2017-06-24T08:00:23.697Z,1009.34
2017-06-24T08:01:04.575Z,1009.33
2017-06-24T08:01:45.476Z,1009.34
2017-06-24T08:02:26.351Z,1009.32
2017-06-24T08:03:07.256Z,1009.28
2017-06-24T08:03:48.169Z,1009.3
2017-06-24T08:04:29.020Z,1009.31
2017-06-24T08:05:09.891Z,1009.3
2017-06-24T08:05:50.762Z,1009.31
2017-06-24T08:06:31.666Z,1009.29
2017-06-24T08:07:12.546Z,1009.28
2017-06-24T08:07:53.411Z,1009.28
2017-06-24T08:08:34.275Z,1009.28
2017-06-24T08:09:15.131Z,1009.29
2017-06-24T08:09:56.009Z,1009.22
2017-06-24T08:10:36.887Z,1009.26
2017-06-24T08:11:17.772Z,1009.25
2017-06-24T08:11:58.675Z,1009.29
2017-06-24T08:12:39.556Z,1009.23
2017-06-24T08:13:20.406Z,1009.25
2017-06-24T08:14:01.298Z,1009.26
2017-06-24T08:14:42.190Z,1009.26
2017-06-24T08:15:23.055Z,1009.2
2017-06-24T08:16:03.910Z,1009.21
2017-06-24T08:16:44.774Z,1009.22
2017-06-24T08:17:25.637Z,1009.2
2017-06-24T08:18:06.527Z,1009.2
2017-06-24T08:18:47.431Z,1009.21
2017-06-24T08:19:28.314Z,1009.23
2017-06-24T08:20:09.204Z,1009.2
2017-06-24T08:20:50.096Z,1009.19
2017-06-24T08:21:30.982Z,1009.17
2017-06-24T08:22:11.858Z,1009.2
2017-06-24T08:22:52.720Z,1009.18
2017-06-24T08:23:33.619Z,1009.17
2017-06-24T08:27:02.082Z,1009.17
2017-06-24T08:27:42.922Z,1009.18
2017-06-24T08:28:23.843Z,1009.17
2017-06-24T08:29:04.713Z,1009.15
2017-06-24T08:29:45.596Z,1009.13
2017-06-24T08:30:26.512Z,1009.1
2017-06-24T08:31:07.374Z,1009.11
2017-06-24T08:31:48.242Z,1009.12
2017-06-24T08:32:29.109Z,1009.12
2017-06-24T08:33:09.964Z,1009.11
2017-06-24T08:33:50.833Z,1009.11
2017-06-24T08:34:31.711Z,1009.14
2017-06-24T08:35:12.580Z,1009.09
2017-06-24T08:35:53.473Z,1009.11
2017-06-24T08:36:34.356Z,1009.11
2017-06-24T08:37:15.238Z,1009.12
2017-06-24T08:37:56.097Z,1009.14
2017-06-24T08:38:37.000Z,1009.12
2017-06-24T08:39:17.898Z,1009.11
2017-06-24T08:39:58.734Z,1009.11
2017-06-24T08:40:39.623Z,1009.12
2017-06-24T08:41:20.505Z,1009.08
2017-06-24T08:42:01.384Z,1009.11
2017-06-24T08:42:42.277Z,1009.08
2017-06-24T08:43:23.154Z,1009.09
2017-06-24T08:44:04.035Z,1009.12
2017-06-24T08:44:44.935Z,1009.13
2017-06-24T08:45:25.813Z,1009.13
2017-06-24T08:46:06.677Z,1009.12
2017-06-24T08:46:47.558Z,1009.08
2017-06-24T08:47:28.419Z,1009.12
2017-06-24T08:48:09.298Z,1009.09
2017-06-24T08:48:50.183Z,1009.15
2017-06-24T08:49:31.051Z,1009.09
2017-06-24T08:50:11.932Z,1009.11
2017-06-24T08:50:52.825Z,1009.13
2017-06-24T08:51:33.685Z,1009.13
2017-06-24T08:52:14.573Z,1009.18
2017-06-24T08:52:55.515Z,1009.15
2017-06-24T08:53:36.398Z,1009.13
2017-06-24T08:54:17.282Z,1009.15
2017-06-24T08:54:58.153Z,1009.16
2017-06-24T08:55:39.026Z,1009.14
2017-06-24T08:56:19.923Z,1009.16
2017-06-24T08:57:00.812Z,1009.12
2017-06-24T08:57:41.695Z,1009.12
2017-06-24T08:58:22.590Z,1009.13
2017-06-24T08:59:03.459Z,1009.08
2017-06-24T08:59:44.356Z,1009.1
2017-06-24T09:00:25.222Z,1009.06
2017-06-24T09:01:06.092Z,1009.04
2017-06-24T09:01:46.971Z,1009.03
2017-06-24T09:02:27.853Z,1009.05
2017-06-24T09:03:08.730Z,1009.05
2017-06-24T09:03:49.601Z,1009.06
2017-06-24T09:04:30.468Z,1009.11
2017-06-24T09:05:11.352Z,1009.05
2017-06-24T09:05:52.207Z,1009.08
2017-06-24T09:06:33.082Z,1009.12
2017-06-24T09:07:13.981Z,1009.08
2017-06-24T09:07:54.854Z,1009.12
2017-06-24T09:08:35.726Z,1009.05
2017-06-24T09:09:16.583Z,1009.06
2017-06-24T09:09:57.479Z,1009.06
2017-06-24T09:10:38.357Z,1009.08
2017-06-24T09:11:19.233Z,1009.12
2017-06-24T09:12:00.105Z,1009.1
2017-06-24T09:12:40.994Z,1009.12
2017-06-24T09:13:21.890Z,1009.1
2017-06-24T09:14:02.783Z,1009.03
2017-06-24T09:14:43.665Z,1009.03
2017-06-24T09:15:24.538Z,1009.05
2017-06-24T09:16:05.431Z,1008.99
2017-06-24T09:16:46.318Z,1008.98
2017-06-24T09:17:27.187Z,1008.97
2017-06-24T09:18:08.066Z,1008.95
2017-06-24T09:18:48.953Z,1008.96
2017-06-24T09:19:29.822Z,1008.95
2017-06-24T09:20:10.714Z,1008.92
2017-06-24T09:20:51.603Z,1008.93
2017-06-24T09:21:32.498Z,1008.91
2017-06-24T09:22:13.384Z,1008.92
2017-06-24T09:22:54.252Z,1008.95
2017-06-24T09:23:35.146Z,1008.93
2017-06-24T09:24:16.037Z,1008.91
2017-06-24T09:24:56.905Z,1008.89
2017-06-24T09:25:37.781Z,1008.84
2017-06-24T09:26:18.673Z,1008.83
2017-06-24T09:26:59.555Z,1008.83
2017-06-24T09:27:40.427Z,1008.83
2017-06-24T09:28:21.313Z,1008.81
2017-06-24T09:29:02.190Z,1008.82
2017-06-24T09:29:43.078Z,1008.82
2017-06-24T09:30:23.980Z,1008.83
2017-06-24T09:31:04.873Z,1008.84
2017-06-24T09:31:45.765Z,1008.84
2017-06-24T09:32:26.630Z,1008.83
2017-06-24T09:33:07.519Z,1008.85
2017-06-24T09:33:50.142Z,1008.84
2017-06-24T09:34:33.810Z,1008.86
2017-06-24T09:35:14.694Z,1008.86
2017-06-24T09:35:55.595Z,1008.82
2017-06-24T09:36:36.473Z,1008.89
2017-06-24T09:37:17.342Z,1008.89
2017-06-24T09:38:03.639Z,1008.87
2017-06-24T09:38:44.523Z,1008.9
2017-06-24T09:39:25.383Z,1008.9
2017-06-24T09:40:06.276Z,1008.92
2017-06-24T09:40:47.149Z,1008.87
2017-06-24T09:41:28.025Z,1008.88
2017-06-24T09:42:08.886Z,1008.86
2017-06-24T09:42:49.763Z,1008.88
2017-06-24T09:43:30.655Z,1008.88
2017-06-24T09:44:11.549Z,1008.88
2017-06-24T09:44:52.422Z,1008.88
2017-06-24T09:45:33.303Z,1008.87
2017-06-24T09:46:14.209Z,1008.82
2017-06-24T09:46:55.093Z,1008.88
2017-06-24T09:47:36.012Z,1008.85
2017-06-24T09:48:16.897Z,1008.77
2017-06-24T09:48:57.757Z,1008.81
2017-06-24T09:49:38.626Z,1008.86
2017-06-24T09:50:19.509Z,1008.85
2017-06-24T09:51:00.366Z,1008.8
2017-06-24T09:51:41.252Z,1008.78
2017-06-24T09:52:22.132Z,1008.79
2017-06-24T09:53:03.013Z,1008.8
2017-06-24T09:53:43.897Z,1008.79
2017-06-24T09:54:24.773Z,1008.79
2017-06-24T09:55:05.668Z,1008.76
2017-06-24T09:55:46.566Z,1008.79
2017-06-24T09:56:27.455Z,1008.8
2017-06-24T09:57:08.336Z,1008.81
2017-06-24T09:57:49.228Z,1008.75
2017-06-24T09:58:30.103Z,1008.81
2017-06-24T09:59:10.986Z,1008.8
2017-06-24T09:59:51.863Z,1008.76
2017-06-24T10:00:32.764Z,1008.76
2017-06-24T10:01:13.655Z,1008.72
2017-06-24T10:01:54.507Z,1008.79
2017-06-24T10:02:35.372Z,1008.72
2017-06-24T10:03:16.256Z,1008.77
2017-06-24T10:03:57.143Z,1008.72
2017-06-24T10:04:38.038Z,1008.76